createdAt,value
2019-02-24T00:00:51.135Z,65.15
2019-02-24T00:01:52.613Z,65.43
2019-02-24T00:02:53.997Z,65.78
2019-02-24T00:03:55.397Z,65.72
2019-02-24T00:04:56.784Z,65.62
2019-02-24T00:05:58.162Z,65.78
2019-02-24T00:06:59.545Z,66.00
2019-02-24T00:08:00.935Z,65.87
2019-02-24T00:09:02.334Z,66.19
2019-02-24T00:10:03.713Z,66.72
2019-02-24T00:11:05.100Z,66.63
2019-02-24T00:12:06.499Z,66.72
2019-02-24T00:13:07.900Z,66.82
2019-02-24T00:14:09.283Z,66.44
2019-02-24T00:15:10.670Z,67.00
2019-02-24T00:16:12.064Z,66.66
2019-02-24T00:17:13.453Z,66.66
2019-02-24T00:18:14.837Z,66.56
2019-02-24T00:19:16.232Z,66.47
2019-02-24T00:20:17.618Z,66.85
2019-02-24T00:21:19.008Z,67.19
2019-02-24T00:22:20.800Z,67.13
2019-02-24T00:23:22.194Z,67.19
2019-02-24T00:24:23.594Z,67.41
2019-02-24T00:25:24.989Z,67.41
2019-02-24T00:26:26.370Z,67.29
2019-02-24T00:27:27.764Z,67.41
2019-02-24T00:28:29.153Z,67.89
2019-02-24T00:29:30.551Z,67.51
2019-02-24T00:30:31.939Z,67.51
2019-02-24T00:31:33.329Z,67.38
2019-02-24T00:32:34.719Z,67.38
2019-02-24T00:33:36.159Z,68.04
2019-02-24T00:34:37.555Z,68.17
2019-02-24T00:35:38.991Z,67.41
2019-02-24T00:36:40.387Z,68.08
2019-02-24T00:37:41.772Z,67.57
2019-02-24T00:38:43.174Z,68.27
2019-02-24T00:39:44.559Z,67.70
2019-02-24T00:40:45.935Z,68.04
2019-02-24T00:41:47.356Z,67.89
2019-02-24T00:42:48.709Z,68.04
2019-02-24T00:43:50.089Z,68.17
2019-02-24T00:44:51.476Z,68.04
2019-02-24T00:45:52.866Z,68.55
2019-02-24T00:46:54.260Z,68.74
2019-02-24T00:47:55.651Z,68.61
2019-02-24T00:48:57.036Z,68.74
2019-02-24T00:49:58.554Z,68.90
2019-02-24T00:50:59.937Z,68.61
2019-02-24T00:52:01.331Z,68.71
2019-02-24T00:53:02.713Z,69.27
2019-02-24T00:54:04.195Z,68.99
2019-02-24T00:55:05.580Z,69.65
2019-02-24T00:56:06.985Z,68.80
2019-02-24T00:57:08.367Z,69.09
2019-02-24T00:58:15.963Z,69.56
2019-02-24T00:59:11.111Z,69.37
2019-02-24T01:00:12.653Z,69.27
2019-02-24T01:01:14.041Z,69.84
2019-02-24T01:02:15.435Z,69.56
2019-02-24T01:03:16.831Z,69.74
2019-02-24T01:04:18.214Z,69.65
2019-02-24T01:05:19.600Z,69.74
2019-02-24T01:06:20.996Z,69.65
2019-02-24T01:07:22.382Z,70.03
2019-02-24T01:08:23.769Z,69.93
2019-02-24T01:09:25.151Z,70.31
2019-02-24T01:10:26.707Z,70.03
2019-02-24T01:11:28.214Z,70.40
2019-02-24T01:12:29.598Z,70.59
2019-02-24T01:13:31.074Z,70.40
2019-02-24T01:14:32.463Z,70.78
2019-02-24T01:15:33.853Z,70.78
2019-02-24T01:16:35.296Z,70.97
2019-02-24T01:17:36.631Z,70.88
2019-02-24T01:18:38.118Z,70.88
2019-02-24T01:19:39.520Z,70.69
2019-02-24T01:20:40.908Z,70.97
2019-02-24T01:21:42.303Z,70.59
2019-02-24T01:22:43.687Z,70.69
2019-02-24T01:23:45.095Z,70.97
2019-02-24T01:24:46.492Z,71.45
2019-02-24T01:25:47.883Z,71.26
2019-02-24T01:26:49.267Z,71.35
2019-02-24T01:27:50.651Z,71.45
2019-02-24T01:28:52.047Z,72.20
2019-02-24T01:29:53.429Z,72.02
2019-02-24T01:30:54.815Z,72.02
2019-02-24T01:31:56.215Z,72.02
2019-02-24T01:32:57.601Z,72.20
2019-02-24T01:33:58.994Z,72.20
2019-02-24T01:35:00.374Z,72.67
2019-02-24T01:36:01.765Z,72.96
2019-02-24T01:37:03.148Z,72.67
2019-02-24T01:38:04.699Z,72.86
2019-02-24T01:39:06.095Z,72.67
2019-02-24T01:40:07.476Z,72.67
2019-02-24T01:41:08.916Z,72.67
2019-02-24T01:42:10.307Z,72.77
2019-02-24T01:43:11.696Z,72.67
2019-02-24T01:44:13.080Z,72.86
2019-02-24T01:45:14.479Z,72.86
2019-02-24T01:46:15.866Z,72.96
2019-02-24T01:47:17.238Z,73.05
2019-02-24T01:48:18.634Z,72.86
2019-02-24T01:49:20.018Z,72.39
2019-02-24T01:50:21.408Z,72.77
2019-02-24T01:51:22.794Z,72.67
2019-02-24T01:52:24.181Z,72.67
2019-02-24T01:53:25.570Z,72.58
2019-02-24T01:54:26.969Z,72.96
2019-02-24T01:55:28.343Z,72.77
2019-02-24T01:56:29.735Z,72.58
2019-02-24T01:57:31.118Z,72.49
2019-02-24T01:58:35.132Z,72.96
2019-02-24T01:59:33.858Z,72.86
2019-02-24T02:00:35.258Z,72.86
2019-02-24T02:01:36.640Z,72.67
2019-02-24T02:02:38.041Z,72.86
2019-02-24T02:03:39.421Z,72.39
2019-02-24T02:04:40.809Z,72.58
2019-02-24T02:05:42.205Z,72.58
2019-02-24T02:06:43.590Z,73.05
2019-02-24T02:07:44.984Z,73.05
2019-02-24T02:08:46.379Z,72.86
2019-02-24T02:09:47.778Z,72.67
2019-02-24T02:10:49.160Z,72.96
2019-02-24T02:11:50.552Z,73.33
2019-02-24T02:12:51.944Z,73.24
2019-02-24T02:13:53.332Z,73.43
2019-02-24T02:14:54.724Z,73.33
2019-02-24T02:15:56.110Z,73.81
2019-02-24T02:16:57.494Z,73.33
2019-02-24T02:17:58.884Z,73.43
2019-02-24T02:19:00.277Z,73.52
2019-02-24T02:20:01.655Z,73.81
2019-02-24T02:21:03.041Z,73.52
2019-02-24T02:22:04.429Z,74.47
2019-02-24T02:23:05.810Z,74.09
2019-02-24T02:24:07.199Z,74.47
2019-02-24T02:25:08.592Z,74.85
2019-02-24T02:26:09.979Z,74.66
2019-02-24T02:27:11.371Z,74.28
2019-02-24T02:28:12.765Z,74.76
2019-02-24T02:29:14.157Z,74.66
2019-02-24T02:30:15.564Z,74.66
2019-02-24T02:31:16.947Z,74.47
2019-02-24T02:32:18.340Z,74.38
2019-02-24T02:33:20.426Z,74.38
2019-02-24T02:34:21.833Z,74.47
2019-02-24T02:35:23.234Z,74.66
2019-02-24T02:36:24.628Z,74.57
2019-02-24T02:37:26.025Z,75.04
2019-02-24T02:38:27.404Z,74.85
2019-02-24T02:39:28.812Z,74.76
2019-02-24T02:40:30.190Z,75.13
2019-02-24T02:41:31.579Z,75.13
2019-02-24T02:42:32.978Z,75.04
2019-02-24T02:43:34.364Z,75.13
2019-02-24T02:44:35.751Z,75.23
2019-02-24T02:45:37.142Z,74.95
2019-02-24T02:46:38.525Z,75.32
2019-02-24T02:47:39.924Z,75.23
2019-02-24T02:48:41.321Z,75.70
2019-02-24T02:49:42.724Z,75.79
2019-02-24T02:50:44.115Z,75.70
2019-02-24T02:51:45.535Z,75.60
2019-02-24T02:52:46.934Z,75.42
2019-02-24T02:53:48.351Z,75.42
2019-02-24T02:54:49.746Z,75.51
2019-02-24T02:55:51.156Z,75.70
2019-02-24T02:56:52.541Z,75.79
2019-02-24T02:57:53.937Z,75.60
2019-02-24T02:58:55.336Z,75.04
2019-02-24T02:59:56.735Z,75.42
2019-02-24T03:00:58.131Z,75.70
2019-02-24T03:01:59.551Z,75.79
2019-02-24T03:03:00.958Z,75.60
2019-02-24T03:04:02.354Z,75.89
2019-02-24T03:05:03.766Z,75.89
2019-02-24T03:06:05.156Z,75.98
2019-02-24T03:07:06.598Z,75.98
2019-02-24T03:08:08.884Z,76.07
2019-02-24T03:09:10.307Z,76.64
2019-02-24T03:10:11.720Z,77.21
2019-02-24T03:11:13.110Z,76.93
2019-02-24T03:12:14.508Z,77.21
2019-02-24T03:13:15.905Z,76.64
2019-02-24T03:14:17.341Z,76.36
2019-02-24T03:15:18.738Z,76.17
2019-02-24T03:16:20.142Z,76.17
2019-02-24T03:17:21.563Z,76.07
2019-02-24T03:18:22.959Z,76.55
2019-02-24T03:19:24.347Z,76.64
2019-02-24T03:20:25.773Z,77.12
2019-02-24T03:21:27.214Z,76.55
2019-02-24T03:22:28.635Z,77.02
2019-02-24T03:23:30.979Z,76.83
2019-02-24T03:24:32.390Z,77.02
2019-02-24T03:25:33.777Z,77.02
2019-02-24T03:26:35.181Z,77.02
2019-02-24T03:27:36.587Z,76.93
2019-02-24T03:28:38.002Z,76.74
2019-02-24T03:29:39.389Z,77.02
2019-02-24T03:30:40.810Z,76.64
2019-02-24T03:31:42.225Z,76.93
2019-02-24T03:32:43.612Z,76.83
2019-02-24T03:33:45.224Z,77.12
2019-02-24T03:34:46.402Z,76.93
2019-02-24T03:35:48.706Z,76.74
2019-02-24T03:36:50.112Z,77.12
2019-02-24T03:37:51.516Z,76.93
2019-02-24T03:38:52.921Z,77.31
2019-02-24T03:39:54.338Z,77.21
2019-02-24T03:40:55.750Z,77.21
2019-02-24T03:41:57.168Z,77.21
2019-02-24T03:42:58.572Z,77.40
2019-02-24T03:44:00.004Z,76.93
2019-02-24T03:45:01.381Z,77.21
2019-02-24T03:46:02.796Z,77.12
2019-02-24T03:47:04.200Z,77.31
2019-02-24T03:48:05.601Z,76.93
2019-02-24T03:49:07.004Z,76.83
2019-02-24T03:50:08.403Z,77.02
2019-02-24T03:51:09.813Z,77.12
2019-02-24T03:52:11.199Z,77.21
2019-02-24T03:53:12.627Z,77.59
2019-02-24T03:54:14.035Z,77.69
2019-02-24T03:55:16.011Z,77.97
2019-02-24T03:56:17.421Z,77.59
2019-02-24T03:57:18.811Z,78.06
2019-02-24T03:58:20.229Z,78.25
2019-02-24T03:59:21.631Z,78.16
2019-02-24T04:00:23.029Z,78.91
2019-02-24T04:01:24.437Z,78.72
2019-02-24T04:02:25.862Z,78.72
2019-02-24T04:03:27.257Z,78.72
2019-02-24T04:04:28.660Z,78.91
2019-02-24T04:05:30.060Z,78.72
2019-02-24T04:06:31.476Z,78.81
2019-02-24T04:07:32.879Z,79.00
2019-02-24T04:08:34.282Z,79.19
2019-02-24T04:09:35.689Z,79.48
2019-02-24T04:10:37.083Z,79.95
2019-02-24T04:11:38.484Z,80.14
2019-02-24T04:12:39.907Z,79.57
2019-02-24T04:13:41.369Z,79.38
2019-02-24T04:14:42.728Z,78.81
2019-02-24T04:15:44.120Z,79.19
2019-02-24T04:16:45.521Z,79.10
2019-02-24T04:17:46.931Z,79.38
2019-02-24T04:18:48.329Z,79.57
2019-02-24T04:19:49.752Z,79.10
2019-02-24T04:20:51.155Z,79.19
2019-02-24T04:21:52.556Z,79.00
2019-02-24T04:22:53.959Z,79.10
2019-02-24T04:23:55.360Z,79.67
2019-02-24T04:24:56.764Z,79.76
2019-02-24T04:25:58.165Z,79.95
2019-02-24T04:26:59.551Z,80.14
2019-02-24T04:28:00.963Z,80.33
2019-02-24T04:29:02.392Z,80.52
2019-02-24T04:30:03.848Z,80.71
2019-02-24T04:31:05.246Z,80.71
2019-02-24T04:32:06.648Z,80.43
2019-02-24T04:33:08.054Z,80.43
2019-02-24T04:34:09.458Z,80.71
2019-02-24T04:35:10.868Z,80.33
2019-02-24T04:36:12.272Z,80.33
2019-02-24T04:37:13.684Z,80.80
2019-02-24T04:38:16.046Z,80.62
2019-02-24T04:39:16.465Z,80.62
2019-02-24T04:40:17.874Z,80.71
2019-02-24T04:41:19.275Z,80.90
2019-02-24T04:42:20.703Z,80.24
2019-02-24T04:43:22.102Z,80.43
2019-02-24T04:44:23.509Z,81.09
2019-02-24T04:45:24.923Z,80.99
2019-02-24T04:46:26.312Z,80.90
2019-02-24T04:47:27.727Z,80.80
2019-02-24T04:48:29.135Z,80.90
2019-02-24T04:49:30.528Z,80.80
2019-02-24T04:50:31.928Z,80.90
2019-02-24T04:51:33.346Z,80.99
2019-02-24T04:52:34.760Z,80.43
2019-02-24T04:53:36.173Z,80.33
2019-02-24T04:54:37.572Z,80.62
2019-02-24T04:55:38.977Z,80.52
2019-02-24T04:56:40.376Z,80.52
2019-02-24T04:57:41.802Z,80.62
2019-02-24T04:58:43.193Z,80.71
2019-02-24T04:59:44.617Z,80.80
2019-02-24T05:00:46.015Z,80.90
2019-02-24T05:01:47.410Z,81.27
2019-02-24T05:02:48.822Z,80.90
2019-02-24T05:03:50.248Z,80.80
2019-02-24T05:04:51.624Z,80.43
2019-02-24T05:05:53.020Z,80.14
2019-02-24T05:06:54.403Z,80.05
2019-02-24T05:07:55.822Z,80.14
2019-02-24T05:08:57.255Z,79.86
2019-02-24T05:09:58.659Z,80.14
2019-02-24T05:11:00.050Z,80.33
2019-02-24T05:12:01.504Z,80.33
2019-02-24T05:13:02.904Z,80.33
2019-02-24T05:14:04.318Z,80.14
2019-02-24T05:15:05.714Z,80.33
2019-02-24T05:16:07.098Z,80.14
2019-02-24T05:17:08.484Z,80.05
2019-02-24T05:18:09.865Z,80.05
2019-02-24T05:19:11.269Z,80.43
2019-02-24T05:20:12.661Z,80.33
2019-02-24T05:21:14.057Z,80.24
2019-02-24T05:22:15.460Z,80.24
2019-02-24T05:23:16.851Z,80.14
2019-02-24T05:24:18.247Z,80.05
2019-02-24T05:25:19.623Z,79.86
2019-02-24T05:26:21.021Z,79.67
2019-02-24T05:27:22.427Z,79.67
2019-02-24T05:28:23.814Z,79.61
2019-02-24T05:29:25.215Z,80.08
2019-02-24T05:30:26.594Z,79.99
2019-02-24T05:31:27.984Z,79.67
2019-02-24T05:32:29.399Z,79.90
2019-02-24T05:33:30.799Z,79.95
2019-02-24T05:34:32.206Z,79.43
2019-02-24T05:35:33.592Z,79.43
2019-02-24T05:36:34.992Z,79.14
2019-02-24T05:37:36.381Z,79.24
2019-02-24T05:38:37.775Z,79.14
2019-02-24T05:39:39.169Z,79.52
2019-02-24T05:40:40.556Z,79.24
2019-02-24T05:41:41.966Z,79.19
2019-02-24T05:42:43.365Z,79.43
2019-02-24T05:43:44.766Z,79.52
2019-02-24T05:44:46.160Z,79.52
2019-02-24T05:45:47.546Z,79.61
2019-02-24T05:46:48.938Z,79.52
2019-02-24T05:47:50.346Z,79.90
2019-02-24T05:48:51.737Z,79.99
2019-02-24T05:49:53.121Z,80.37
2019-02-24T05:50:54.512Z,80.08
2019-02-24T05:51:55.923Z,80.27
2019-02-24T05:52:57.309Z,80.08
2019-02-24T05:53:58.698Z,80.18
2019-02-24T05:55:00.221Z,80.27
2019-02-24T05:56:01.455Z,80.18
2019-02-24T05:57:02.850Z,80.84
2019-02-24T05:58:04.228Z,80.94
2019-02-24T05:59:05.616Z,80.18
2019-02-24T06:00:07.013Z,80.08
2019-02-24T06:01:08.404Z,80.18
2019-02-24T06:02:09.808Z,80.37
2019-02-24T06:03:11.886Z,80.18
2019-02-24T06:04:13.270Z,80.18
2019-02-24T06:05:14.657Z,79.99
2019-02-24T06:06:16.034Z,80.18
2019-02-24T06:07:17.427Z,80.27
2019-02-24T06:08:18.822Z,80.08
2019-02-24T06:09:20.216Z,80.08
2019-02-24T06:10:21.613Z,80.46
2019-02-24T06:11:23.025Z,80.18
2019-02-24T06:12:24.463Z,80.65
2019-02-24T06:13:25.825Z,80.56
2019-02-24T06:14:27.216Z,80.56
2019-02-24T06:15:28.621Z,80.37
2019-02-24T06:16:30.044Z,80.75
2019-02-24T06:17:31.437Z,80.65
2019-02-24T06:18:32.837Z,81.03
2019-02-24T06:19:34.278Z,81.13
2019-02-24T06:20:35.682Z,80.99
2019-02-24T06:21:37.079Z,80.99
2019-02-24T06:22:38.468Z,81.13
2019-02-24T06:23:39.867Z,81.13
2019-02-24T06:24:41.279Z,81.03
2019-02-24T06:25:42.674Z,81.60
2019-02-24T06:26:44.568Z,81.51
2019-02-24T06:27:45.970Z,81.41
2019-02-24T06:28:47.354Z,81.51
2019-02-24T06:29:48.782Z,81.51
2019-02-24T06:30:50.176Z,81.32
2019-02-24T06:31:51.576Z,81.32
2019-02-24T06:32:52.979Z,81.41
2019-02-24T06:33:54.369Z,81.22
2019-02-24T06:34:55.778Z,81.51
2019-02-24T06:35:57.164Z,81.60
2019-02-24T06:36:58.583Z,81.70
2019-02-24T06:38:00.011Z,81.70
2019-02-24T06:39:01.448Z,81.51
2019-02-24T06:40:02.878Z,81.70
2019-02-24T06:41:04.293Z,81.51
2019-02-24T06:42:05.679Z,81.60
2019-02-24T06:43:07.067Z,81.51
2019-02-24T06:44:08.472Z,81.03
2019-02-24T06:45:09.922Z,81.13
2019-02-24T06:46:11.336Z,81.32
2019-02-24T06:47:12.680Z,81.13
2019-02-24T06:48:14.074Z,81.13
2019-02-24T06:49:15.486Z,81.32
2019-02-24T06:50:16.875Z,80.84
2019-02-24T06:51:18.278Z,80.18
2019-02-24T06:52:19.686Z,80.46
2019-02-24T06:53:21.084Z,80.65
2019-02-24T06:54:22.596Z,80.27
2019-02-24T06:55:24.020Z,80.27
2019-02-24T06:56:25.418Z,79.80
2019-02-24T06:57:27.408Z,79.52
2019-02-24T06:58:28.817Z,79.33
2019-02-24T06:59:30.233Z,79.52
2019-02-24T07:00:31.616Z,79.71
2019-02-24T07:01:33.019Z,79.71
2019-02-24T07:02:34.415Z,79.90
2019-02-24T07:03:35.813Z,79.80
2019-02-24T07:04:37.215Z,79.71
2019-02-24T07:05:38.610Z,79.90
2019-02-24T07:06:39.999Z,79.90
2019-02-24T07:07:41.415Z,79.90
2019-02-24T07:08:42.831Z,79.90
2019-02-24T07:09:44.220Z,79.71
2019-02-24T07:10:45.615Z,79.52
2019-02-24T07:11:47.006Z,79.80
2019-02-24T07:12:48.389Z,79.80
2019-02-24T07:13:49.783Z,79.61
2019-02-24T07:14:51.183Z,79.43
2019-02-24T07:15:52.577Z,79.43
2019-02-24T07:16:53.995Z,79.56
2019-02-24T07:17:55.406Z,79.47
2019-02-24T07:18:56.801Z,79.18
2019-02-24T07:19:58.196Z,78.71
2019-02-24T07:20:59.596Z,77.01
2019-02-24T07:22:01.820Z,76.57
2019-02-24T07:23:03.220Z,75.24
2019-02-24T07:24:04.620Z,74.96
2019-02-24T07:25:06.015Z,74.30
2019-02-24T07:26:07.421Z,73.68
2019-02-24T07:27:08.828Z,72.53
2019-02-24T07:28:10.222Z,72.06
2019-02-24T07:29:11.616Z,71.69
2019-02-24T07:30:13.082Z,70.45
2019-02-24T07:31:14.471Z,70.83
2019-02-24T07:32:15.866Z,69.98
2019-02-24T07:33:17.329Z,69.89
2019-02-24T07:34:18.758Z,70.64
2019-02-24T07:35:20.162Z,70.26
2019-02-24T07:36:21.601Z,70.17
2019-02-24T07:37:22.990Z,69.32
2019-02-24T07:38:24.395Z,68.84
2019-02-24T07:39:25.784Z,68.84
2019-02-24T07:40:27.193Z,68.75
2019-02-24T07:41:28.618Z,69.03
2019-02-24T07:42:29.989Z,69.13
2019-02-24T07:43:31.398Z,69.22
2019-02-24T07:44:32.805Z,69.98
2019-02-24T07:45:34.216Z,70.07
2019-02-24T07:46:35.666Z,70.07
2019-02-24T07:47:37.057Z,69.98
2019-02-24T07:48:38.475Z,70.26
2019-02-24T07:49:39.870Z,70.01
2019-02-24T07:50:41.270Z,69.54
2019-02-24T07:51:42.675Z,68.40
2019-02-24T07:52:44.074Z,68.98
2019-02-24T07:53:45.472Z,68.40
2019-02-24T07:54:46.872Z,68.15
2019-02-24T07:55:48.272Z,67.30
2019-02-24T07:56:49.664Z,67.02
2019-02-24T07:57:51.974Z,66.35
2019-02-24T07:58:53.362Z,65.59
2019-02-24T07:59:54.768Z,64.74
2019-02-24T08:00:56.167Z,64.84
2019-02-24T08:01:57.571Z,64.97
2019-02-24T08:02:58.983Z,64.20
2019-02-24T08:04:00.384Z,64.11
2019-02-24T08:05:01.787Z,63.26
2019-02-24T08:06:03.247Z,63.45
2019-02-24T08:07:04.586Z,63.07
2019-02-24T08:08:06.001Z,63.10
2019-02-24T08:09:07.423Z,61.77
2019-02-24T08:10:08.827Z,61.96
2019-02-24T08:11:10.291Z,61.49
2019-02-24T08:12:11.703Z,60.06
2019-02-24T08:13:13.139Z,59.52
2019-02-24T08:14:14.532Z,59.71
2019-02-24T08:15:15.927Z,59.52
2019-02-24T08:16:17.334Z,58.20
2019-02-24T08:17:18.727Z,58.20
2019-02-24T08:18:20.192Z,57.75
2019-02-24T08:19:21.611Z,56.70
2019-02-24T08:20:23.014Z,56.45
2019-02-24T08:21:24.435Z,55.02
2019-02-24T08:22:25.834Z,53.81
2019-02-24T08:23:27.233Z,53.20
2019-02-24T08:24:29.163Z,51.42
2019-02-24T08:25:30.019Z,49.76
2019-02-24T08:26:31.474Z,46.48
2019-02-24T08:27:32.870Z,42.52
2019-02-24T08:28:34.292Z,39.50
2019-02-24T08:29:35.705Z,37.15
2019-02-24T08:30:41.482Z,34.50
2019-02-24T08:31:38.511Z,32.82
2019-02-24T08:32:39.943Z,30.93
2019-02-24T08:33:41.348Z,28.55
2019-02-24T08:34:42.747Z,27.42
2019-02-24T08:35:44.159Z,26.56
2019-02-24T08:36:45.576Z,26.18
2019-02-24T08:37:47.006Z,25.42
2019-02-24T08:38:48.416Z,25.51
2019-02-24T08:39:49.829Z,25.40
2019-02-24T08:40:51.249Z,25.38
2019-02-24T08:41:52.661Z,26.43
2019-02-24T08:42:54.078Z,26.50
2019-02-24T08:43:55.487Z,27.36
2019-02-24T08:44:56.918Z,28.11
2019-02-24T08:45:58.346Z,29.45
2019-02-24T08:46:59.744Z,30.30
2019-02-24T08:48:01.164Z,30.49
2019-02-24T08:49:02.582Z,30.30
2019-02-24T08:50:03.998Z,30.58
2019-02-24T08:51:05.429Z,31.07
2019-02-24T08:52:06.831Z,30.70
2019-02-24T08:53:08.251Z,29.66
2019-02-24T08:54:10.477Z,28.91
2019-02-24T08:55:11.879Z,27.49
2019-02-24T08:56:13.286Z,26.73
2019-02-24T08:57:14.703Z,25.98
2019-02-24T08:58:16.123Z,24.95
2019-02-24T08:59:17.537Z,23.69
2019-02-24T09:00:18.949Z,23.22
2019-02-24T09:01:20.389Z,23.04
2019-02-24T09:02:21.808Z,22.75
2019-02-24T09:03:23.227Z,22.86
2019-02-24T09:04:24.639Z,22.47
2019-02-24T09:05:26.071Z,22.86
2019-02-24T09:06:27.481Z,22.28
2019-02-24T09:07:28.943Z,22.19
2019-02-24T09:08:30.358Z,22.28
2019-02-24T09:09:31.765Z,22.09
2019-02-24T09:10:33.169Z,22.09
2019-02-24T09:11:34.598Z,22.19
2019-02-24T09:12:36.016Z,21.80
2019-02-24T09:13:37.440Z,21.61
2019-02-24T09:14:38.862Z,20.93
2019-02-24T09:15:40.276Z,20.83
2019-02-24T09:16:41.693Z,20.93
2019-02-24T09:17:43.128Z,20.84
2019-02-24T09:18:44.553Z,20.65
2019-02-24T09:19:45.993Z,20.66
2019-02-24T09:20:47.407Z,20.76
2019-02-24T09:21:48.841Z,20.67
2019-02-24T09:22:50.235Z,20.10
2019-02-24T09:23:51.657Z,19.73
2019-02-24T09:24:53.084Z,19.43
2019-02-24T09:25:54.531Z,19.15
2019-02-24T09:26:55.951Z,18.77
2019-02-24T09:27:57.389Z,18.39
2019-02-24T09:28:58.827Z,17.90
2019-02-24T09:30:00.313Z,18.00
2019-02-24T09:31:01.657Z,17.71
2019-02-24T09:32:03.083Z,18.10
2019-02-24T09:33:04.543Z,17.52
2019-02-24T09:34:05.970Z,18.00
2019-02-24T09:35:07.417Z,17.81
2019-02-24T09:36:08.837Z,18.19
2019-02-24T09:37:10.279Z,18.10
2019-02-24T09:38:11.723Z,18.11
2019-02-24T09:39:13.172Z,18.01
2019-02-24T09:40:14.620Z,17.71
2019-02-24T09:41:16.078Z,17.91
2019-02-24T09:42:17.532Z,17.43
2019-02-24T09:43:18.990Z,17.44
2019-02-24T09:44:20.420Z,16.86
2019-02-24T09:45:21.852Z,16.76
2019-02-24T09:46:23.267Z,16.86
2019-02-24T09:47:24.721Z,16.68
2019-02-24T09:48:26.156Z,17.46
2019-02-24T09:49:27.593Z,16.69
2019-02-24T09:50:29.010Z,16.02
2019-02-24T09:51:30.455Z,16.02
2019-02-24T09:52:31.885Z,14.47
2019-02-24T09:53:33.317Z,14.37
2019-02-24T09:54:34.735Z,14.48
2019-02-24T09:55:36.151Z,14.67
2019-02-24T09:56:37.585Z,14.59
2019-02-24T09:57:39.003Z,14.30
2019-02-24T09:58:40.436Z,13.24
2019-02-24T09:59:41.867Z,13.15
2019-02-24T10:00:44.112Z,12.76
2019-02-24T10:01:45.537Z,12.48
2019-02-24T10:02:46.972Z,12.29
2019-02-24T10:03:48.393Z,11.91
2019-02-24T10:04:49.830Z,11.52
2019-02-24T10:05:51.267Z,11.23
2019-02-24T10:06:52.688Z,10.85
2019-02-24T10:07:54.103Z,10.75
2019-02-24T10:08:55.542Z,10.27
2019-02-24T10:09:56.966Z,9.98
2019-02-24T10:10:58.399Z,9.88
2019-02-24T10:11:59.826Z,9.98
2019-02-24T10:13:01.247Z,9.59
2019-02-24T10:14:02.713Z,9.50
2019-02-24T10:15:04.153Z,9.89
2019-02-24T10:16:05.597Z,9.50
2019-02-24T10:17:07.022Z,9.61
2019-02-24T10:18:08.443Z,8.72
2019-02-24T10:19:09.862Z,8.23
2019-02-24T10:20:11.282Z,8.23
2019-02-24T10:21:12.711Z,8.13
2019-02-24T10:22:14.133Z,8.62
2019-02-24T10:23:15.518Z,8.43
2019-02-24T10:24:16.955Z,8.62
2019-02-24T10:25:18.367Z,8.62
2019-02-24T10:26:19.791Z,8.81
2019-02-24T10:27:21.205Z,9.01
2019-02-24T10:28:22.626Z,9.20
2019-02-24T10:29:24.073Z,9.19
2019-02-24T10:30:25.493Z,8.70
2019-02-24T10:31:26.928Z,9.00
2019-02-24T10:32:28.346Z,9.67
2019-02-24T10:33:29.785Z,9.86
2019-02-24T10:34:31.218Z,10.34
2019-02-24T10:35:32.632Z,10.82
2019-02-24T10:36:34.056Z,10.90
2019-02-24T10:37:35.484Z,11.57
2019-02-24T10:38:36.898Z,12.44
2019-02-24T10:39:38.328Z,12.82
2019-02-24T10:40:39.744Z,13.48
2019-02-24T10:41:41.184Z,13.96
2019-02-24T10:42:42.605Z,14.25
2019-02-24T10:43:44.029Z,14.82
2019-02-24T10:44:45.452Z,15.20
2019-02-24T10:45:46.908Z,15.29
2019-02-24T10:46:48.356Z,15.77
2019-02-24T10:47:49.784Z,15.86
2019-02-24T10:48:51.196Z,16.43
2019-02-24T10:49:52.618Z,16.82
2019-02-24T10:50:54.055Z,16.82
2019-02-24T10:51:55.476Z,16.52
2019-02-24T10:52:56.886Z,16.34
2019-02-24T10:53:58.305Z,16.25
2019-02-24T10:54:59.728Z,15.86
2019-02-24T10:56:01.145Z,15.67
2019-02-24T10:57:02.561Z,15.38
2019-02-24T10:58:03.977Z,15.38
2019-02-24T10:59:05.393Z,15.47
2019-02-24T11:00:06.804Z,15.96
2019-02-24T11:01:08.244Z,15.48
2019-02-24T11:02:09.655Z,15.29
2019-02-24T11:03:11.133Z,15.30
2019-02-24T11:04:13.226Z,15.00
2019-02-24T11:05:14.656Z,14.90
2019-02-24T11:06:16.065Z,15.48
2019-02-24T11:07:17.480Z,15.47
2019-02-24T11:08:18.885Z,15.56
2019-02-24T11:09:20.314Z,15.94
2019-02-24T11:10:21.772Z,16.42
2019-02-24T11:11:23.210Z,16.81
2019-02-24T11:12:24.638Z,16.31
2019-02-24T11:13:26.060Z,16.22
2019-02-24T11:14:27.516Z,16.41
2019-02-24T11:15:28.902Z,16.20
2019-02-24T11:16:32.146Z,16.67
2019-02-24T11:17:31.736Z,17.73
2019-02-24T11:18:33.164Z,17.82
2019-02-24T11:19:34.582Z,18.59
2019-02-24T11:20:36.051Z,19.54
2019-02-24T11:21:37.489Z,19.72
2019-02-24T11:22:38.927Z,19.63
2019-02-24T11:23:40.349Z,19.72
2019-02-24T11:24:41.767Z,20.11
2019-02-24T11:25:43.191Z,19.92
2019-02-24T11:26:45.407Z,19.82
2019-02-24T11:27:46.832Z,20.01
2019-02-24T11:28:48.243Z,20.01
2019-02-24T11:29:49.651Z,20.11
2019-02-24T11:30:51.067Z,19.72
2019-02-24T11:31:52.481Z,19.72
2019-02-24T11:32:53.901Z,18.76
2019-02-24T11:33:55.312Z,18.86
2019-02-24T11:34:56.740Z,18.77
2019-02-24T11:35:59.017Z,18.68
2019-02-24T11:37:00.431Z,19.25
2019-02-24T11:38:01.857Z,18.19
2019-02-24T11:39:03.306Z,17.05
2019-02-24T11:40:04.734Z,17.72
2019-02-24T11:41:06.144Z,17.62
2019-02-24T11:42:07.582Z,17.33
2019-02-24T11:43:08.989Z,17.53
2019-02-24T11:44:10.401Z,17.44
2019-02-24T11:45:11.828Z,16.86
2019-02-24T11:46:13.313Z,17.82
2019-02-24T11:47:14.731Z,16.96
2019-02-24T11:48:16.144Z,17.35
2019-02-24T11:49:17.548Z,17.35
2019-02-24T11:50:18.971Z,19.18
2019-02-24T11:51:20.405Z,19.17
2019-02-24T11:52:21.801Z,19.93
2019-02-24T11:53:23.219Z,19.84
2019-02-24T11:54:24.633Z,18.68
2019-02-24T11:55:26.047Z,19.15
2019-02-24T11:56:27.461Z,19.34
2019-02-24T11:57:28.871Z,18.38
2019-02-24T11:58:30.277Z,19.63
2019-02-24T11:59:31.684Z,19.43
2019-02-24T12:00:33.090Z,19.54
2019-02-24T12:01:34.516Z,19.15
2019-02-24T12:02:35.934Z,18.18
2019-02-24T12:03:37.341Z,18.77
2019-02-24T12:04:38.755Z,18.68
2019-02-24T12:05:40.193Z,18.38
2019-02-24T12:06:41.602Z,18.66
2019-02-24T12:07:43.008Z,17.80
2019-02-24T12:08:44.540Z,17.80
2019-02-24T12:09:45.954Z,18.76
2019-02-24T12:10:47.365Z,18.95
2019-02-24T12:11:48.808Z,18.95
2019-02-24T12:12:50.218Z,18.56
2019-02-24T12:13:51.627Z,18.46
2019-02-24T12:14:53.027Z,19.90
2019-02-24T12:15:54.891Z,19.52
2019-02-24T12:16:55.807Z,19.32
2019-02-24T12:17:57.221Z,19.51
2019-02-24T12:18:58.623Z,19.13
2019-02-24T12:20:00.048Z,19.03
2019-02-24T12:21:01.454Z,18.74
2019-02-24T12:22:02.867Z,19.03
2019-02-24T12:23:04.349Z,18.26
2019-02-24T12:24:05.762Z,17.87
2019-02-24T12:25:07.157Z,17.29
2019-02-24T12:26:08.561Z,17.96
2019-02-24T12:27:09.972Z,17.29
2019-02-24T12:28:11.391Z,18.15
2019-02-24T12:29:12.795Z,18.44
2019-02-24T12:30:14.199Z,19.20
2019-02-24T12:31:15.606Z,20.17
2019-02-24T12:32:17.010Z,20.64
2019-02-24T12:33:18.422Z,19.88
2019-02-24T12:34:19.834Z,19.59
2019-02-24T12:35:21.257Z,19.10
2019-02-24T12:36:22.654Z,19.67
2019-02-24T12:37:24.055Z,19.96
2019-02-24T12:38:25.451Z,19.67
2019-02-24T12:39:26.858Z,18.81
2019-02-24T12:40:28.320Z,18.71
2019-02-24T12:41:29.676Z,19.10
2019-02-24T12:42:31.088Z,19.00
2019-02-24T12:43:32.498Z,19.00
2019-02-24T12:44:33.899Z,18.24
2019-02-24T12:45:35.315Z,18.04
2019-02-24T12:46:36.719Z,18.51
2019-02-24T12:47:38.121Z,18.99
2019-02-24T12:48:39.619Z,19.18
2019-02-24T12:49:41.030Z,19.18
2019-02-24T12:50:42.445Z,18.71
2019-02-24T12:51:43.844Z,18.71
2019-02-24T12:52:45.260Z,19.09
2019-02-24T12:53:46.845Z,19.28
2019-02-24T12:54:48.248Z,19.85
2019-02-24T12:55:49.654Z,19.57
2019-02-24T12:56:51.053Z,19.76
2019-02-24T12:57:52.478Z,19.65
2019-02-24T12:58:53.882Z,19.57
2019-02-24T12:59:55.291Z,19.38
2019-02-24T13:00:56.707Z,19.56
2019-02-24T13:02:05.510Z,19.94
2019-02-24T13:02:59.491Z,20.05
2019-02-24T13:04:00.917Z,19.95
2019-02-24T13:05:02.346Z,20.43
2019-02-24T13:06:03.766Z,20.32
2019-02-24T13:07:05.163Z,20.81
2019-02-24T13:08:06.589Z,21.57
2019-02-24T13:09:08.003Z,20.81
2019-02-24T13:10:09.410Z,20.90
2019-02-24T13:11:11.479Z,20.81
2019-02-24T13:12:12.179Z,21.19